Portada
METAR-TAF:

METAR-TAF

Aeropuertos :

Aeropuerto de Trieste - Friuli Venezia Giulia

Trieste / Ronchi dei Legionari, Italia

latitud: 45-49N, longitud: 013-29E, altitud: 12 m

Observación

El informe se hizo hace 32 minutos, a las 01:20 UTC
Viento 4 kt del este-noreste, variando entre norte-noreste y este
Temperatura 15°C
Humedad 77%
Presión 1017 hPa
Visibilidad 10 km o más
Cielo cubierto a una altura de 7900 ft

METAR: LIPQ 010120Z AUTO 06004KT 030V090 9999 // OVC079 15/11 Q1017

Hora: 03:52 (01:52 UTC)

Pronóstico

El informe se hizo hace 8 horas y 52 minutos, a las 17:00 UTC
Pronóstico válido del 31 a las 18 UTC al 01 a las 18 UTC
Viento 4 kt con dirección variable
Visibilidad 10 km o más
Nubes dispersas a una altura de 6000 ft

TAF: LIPQ 311700Z 3118/0118 VRB04KT 9999 SCT060

Observaciones y pronósticos meteorológicos de más de 4000 aeropuertos (mensajes METAR y TAF).

Los puntos amarillos y rojos representan las estaciones disponibles.

Ponga el ratón en el punto deseado para ver el nombre de la estación.

Haga clic para ver las observaciones y los pronósticos meteorológicos.

Para cambiar el mapa : haga clic en los botones verdes con una cruz de color negro para hacer un zoom, en el botón verde con un guión para alejar o en las flechas verdes para mapas adyacentes.


METAR-TAF: